Time;durP1;ratioP1;P1;durP2;ratioP2;P2;SDS_P1;SDS_P2;PMS_P1;PMS_P2;Temp;Humidity;BMP_temperature;BMP_pressure;BME280_temperature;BME280_humidity;BME280_pressure;Samples;Min_cycle;Max_cycle;Signal;HPM_P1;HPM_P2
2023/11/17 00:02:20;;;;;;;2.53;1.60;;;;;;;;;;4948564;28;20273;-85
2023/11/17 00:04:46;;;;;;;1.50;1.40;;;;;;;;;;4953629;28;20309;-84
2023/11/17 00:07:16;;;;;;;1.60;1.50;;;;;;;;;;4949369;28;20226;-83
2023/11/17 00:09:41;;;;;;;2.57;1.40;;;;;;;;;;4958587;28;20572;-85
2023/11/17 00:12:09;;;;;;;2.27;1.50;;;;;;;;;;4970356;28;20223;-84
2023/11/17 00:14:37;;;;;;;1.67;1.57;;;;;;;;;;4965704;28;20250;-82
2023/11/17 00:17:03;;;;;;;2.10;1.80;;;;;;;;;;4952828;28;20249;-82
2023/11/17 00:19:29;;;;;;;1.60;1.50;;;;;;;;;;4959733;28;20210;-83
2023/11/17 00:21:54;;;;;;;2.70;1.70;;;;;;;;;;4941465;28;20298;-84
2023/11/17 00:24:20;;;;;;;1.83;1.57;;;;;;;;;;4930805;28;20254;-84
2023/11/17 00:26:45;;;;;;;1.90;1.43;;;;;;;;;;4958750;28;20230;-84
2023/11/17 00:29:11;;;;;;;2.00;1.80;;;;;;;;;;4968729;28;20217;-84
2023/11/17 00:31:41;;;;;;;4.47;2.23;;;;;;;;;;4982029;28;20257;-83
2023/11/17 00:34:08;;;;;;;1.53;1.43;;;;;;;;;;4954603;28;20592;-80
2023/11/17 00:36:33;;;;;;;3.00;2.60;;;;;;;;;;4950225;28;20225;-81
2023/11/17 00:39:01;;;;;;;1.67;1.57;;;;;;;;;;4922273;28;20230;-79
2023/11/17 00:41:30;;;;;;;1.80;1.70;;;;;;;;;;4925964;28;20232;-82
2023/11/17 00:43:56;;;;;;;1.90;1.50;;;;;;;;;;4927048;28;20222;-81
2023/11/17 00:46:21;;;;;;;1.80;1.70;;;;;;;;;;4956472;28;20762;-81
2023/11/17 00:48:49;;;;;;;1.67;1.57;;;;;;;;;;4935277;28;20284;-82
2023/11/17 00:51:18;;;;;;;2.00;1.70;;;;;;;;;;4953927;28;21202;-81
2023/11/17 00:53:44;;;;;;;1.80;1.70;;;;;;;;;;4969999;28;20218;-81
2023/11/17 00:56:10;;;;;;;1.57;1.47;;;;;;;;;;4953854;28;20245;-82
2023/11/17 00:58:40;;;;;;;1.90;1.77;;;;;;;;;;4954275;28;20282;-80
2023/11/17 01:01:06;;;;;;;1.80;1.70;;;;;;;;;;4946536;28;20308;-84
2023/11/17 01:03:34;;;;;;;1.60;1.50;;;;;;;;;;4933171;28;20314;-83
2023/11/17 01:06:00;;;;;;;1.97;1.50;;;;;;;;;;4927781;28;20237;-82
2023/11/17 01:08:28;;;;;;;1.50;1.40;;;;;;;;;;4957978;28;20238;-80
2023/11/17 01:10:56;;;;;;;1.50;1.40;;;;;;;;;;4967482;28;20636;-82
2023/11/17 01:13:24;;;;;;;1.27;1.17;;;;;;;;;;4957423;28;20250;-81
2023/11/17 01:15:50;;;;;;;1.47;1.23;;;;;;;;;;4942043;28;20815;-84
2023/11/17 01:18:15;;;;;;;1.43;1.33;;;;;;;;;;4950288;28;20221;-82
2023/11/17 01:20:41;;;;;;;1.83;1.67;;;;;;;;;;4955984;28;20734;-82
2023/11/17 01:23:07;;;;;;;1.93;1.43;;;;;;;;;;4937370;28;20690;-81
2023/11/17 01:25:33;;;;;;;2.43;1.30;;;;;;;;;;4940089;28;20566;-80
2023/11/17 01:28:02;;;;;;;1.30;1.20;;;;;;;;;;4925796;28;20221;-82
2023/11/17 01:30:30;;;;;;;1.77;1.20;;;;;;;;;;4952133;28;20218;-81
2023/11/17 01:32:55;;;;;;;1.60;1.23;;;;;;;;;;4939755;28;20272;-82
2023/11/17 01:35:23;;;;;;;1.30;1.23;;;;;;;;;;4970673;28;20222;-81
2023/11/17 01:37:51;;;;;;;2.23;1.37;;;;;;;;;;4941822;28;20565;-82
2023/11/17 01:40:22;;;;;;;1.10;1.10;;;;;;;;;;4918927;28;20226;-81
2023/11/17 01:42:51;;;;;;;1.60;1.30;;;;;;;;;;4952998;28;20223;-82
2023/11/17 01:45:16;;;;;;;1.23;1.13;;;;;;;;;;4948948;28;20319;-83
2023/11/17 01:47:42;;;;;;;1.83;1.40;;;;;;;;;;4937954;29;20273;-81
2023/11/17 01:50:11;;;;;;;1.30;1.20;;;;;;;;;;4905476;28;20226;-81
2023/11/17 01:52:38;;;;;;;1.70;1.33;;;;;;;;;;4938625;29;20235;-82
2023/11/17 01:55:05;;;;;;;1.40;1.30;;;;;;;;;;4937251;28;20226;-83
2023/11/17 01:57:31;;;;;;;1.50;1.40;;;;;;;;;;4920660;29;20222;-84
2023/11/17 01:59:56;;;;;;;1.33;1.23;;;;;;;;;;4936773;29;20744;-82
2023/11/17 02:02:22;;;;;;;1.87;1.40;;;;;;;;;;4922022;28;22598;-81
2023/11/17 02:04:50;;;;;;;2.30;1.33;;;;;;;;;;4938443;29;20215;-83
2023/11/17 02:07:23;;;;;;;2.00;1.30;;;;;;;;;;4919591;28;20229;-83
2023/11/17 02:10:13;;;;;;;1.37;1.20;;;;;;;;;;4900106;29;20222;-82
2023/11/17 02:12:49;;;;;;;1.40;1.30;;;;;;;;;;4970986;28;20234;-84
2023/11/17 02:15:21;;;;;;;0.87;0.87;;;;;;;;;;4942566;28;20237;-82
2023/11/17 02:17:49;;;;;;;1.37;1.27;;;;;;;;;;4956115;28;20223;-82
2023/11/17 02:20:19;;;;;;;2.37;1.10;;;;;;;;;;4954468;28;20230;-83
2023/11/17 02:22:50;;;;;;;1.30;1.20;;;;;;;;;;4943445;28;20249;-84
2023/11/17 02:25:48;;;;;;;2.37;1.20;;;;;;;;;;4951581;28;20215;-81
2023/11/17 02:28:50;;;;;;;1.30;1.20;;;;;;;;;;4968051;28;20246;-84
2023/11/17 02:31:25;;;;;;;2.97;1.30;;;;;;;;;;4982494;28;20297;-83
2023/11/17 02:33:51;;;;;;;1.50;1.40;;;;;;;;;;4958776;28;20746;-83
2023/11/17 02:36:19;;;;;;;1.17;1.10;;;;;;;;;;4920629;28;20252;-82
2023/11/17 02:38:57;;;;;;;1.30;1.20;;;;;;;;;;4947597;28;20282;-82
2023/11/17 02:41:29;;;;;;;1.07;0.97;;;;;;;;;;4940780;28;20227;-83
2023/11/17 02:43:57;;;;;;;1.27;1.10;;;;;;;;;;4954004;28;20834;-81
2023/11/17 02:46:32;;;;;;;1.83;1.10;;;;;;;;;;4958179;28;20683;-81
2023/11/17 02:48:59;;;;;;;3.00;1.30;;;;;;;;;;4952926;28;20262;-82
2023/11/17 02:51:32;;;;;;;1.30;1.20;;;;;;;;;;4963028;28;20230;-81
2023/11/17 02:54:01;;;;;;;2.53;1.60;;;;;;;;;;4944334;28;20743;-83
2023/11/17 02:56:26;;;;;;;1.43;1.30;;;;;;;;;;4958861;28;20222;-81
2023/11/17 02:58:54;;;;;;;1.53;1.23;;;;;;;;;;4957856;28;20230;-82
2023/11/17 03:01:24;;;;;;;1.20;1.10;;;;;;;;;;4971354;28;20817;-83
2023/11/17 03:03:55;;;;;;;1.60;1.30;;;;;;;;;;4937818;28;20268;-82
2023/11/17 03:06:21;;;;;;;1.53;1.40;;;;;;;;;;4927927;28;20225;-83
2023/11/17 03:08:49;;;;;;;1.50;1.40;;;;;;;;;;4940501;28;20245;-83
2023/11/17 03:11:21;;;;;;;1.73;1.47;;;;;;;;;;4955290;28;20226;-83
2023/11/17 03:13:49;;;;;;;2.37;1.60;;;;;;;;;;4960992;28;20222;-84
2023/11/17 03:16:23;;;;;;;2.30;1.53;;;;;;;;;;4934270;28;20228;-81
2023/11/17 03:18:52;;;;;;;1.37;1.27;;;;;;;;;;4942832;28;20230;-81
2023/11/17 03:21:23;;;;;;;1.70;1.40;;;;;;;;;;4955259;28;20725;-81
2023/11/17 03:23:50;;;;;;;1.63;1.53;;;;;;;;;;4953102;28;20214;-82
2023/11/17 03:26:17;;;;;;;2.20;1.20;;;;;;;;;;4943195;28;20218;-82
2023/11/17 03:28:45;;;;;;;2.30;1.50;;;;;;;;;;4957858;28;20229;-83
2023/11/17 03:31:13;;;;;;;1.40;1.30;;;;;;;;;;4939544;28;20298;-83
2023/11/17 03:33:45;;;;;;;1.63;1.30;;;;;;;;;;4924231;28;20998;-83
2023/11/17 03:36:12;;;;;;;1.40;1.30;;;;;;;;;;4946148;28;20225;-82
2023/11/17 03:38:38;;;;;;;1.50;1.40;;;;;;;;;;4957816;28;20683;-81
2023/11/17 03:41:04;;;;;;;2.13;1.43;;;;;;;;;;4956609;28;20382;-81
2023/11/17 03:43:35;;;;;;;2.80;1.43;;;;;;;;;;4957977;28;20218;-81
2023/11/17 03:46:03;;;;;;;1.37;1.23;;;;;;;;;;4922069;28;20230;-81
2023/11/17 03:48:30;;;;;;;1.40;1.20;;;;;;;;;;4948597;28;20711;-81
2023/11/17 03:50:57;;;;;;;2.33;1.60;;;;;;;;;;4958963;28;20671;-82
2023/11/17 03:53:25;;;;;;;1.97;1.40;;;;;;;;;;4943206;28;20229;-82
2023/11/17 03:55:56;;;;;;;1.30;1.20;;;;;;;;;;4954865;28;20218;-83
2023/11/17 03:58:22;;;;;;;1.43;1.33;;;;;;;;;;4938247;28;20261;-81
2023/11/17 04:04:37;;;;;;;1.80;1.67;;;;;;;;;;4965524;28;20233;-83
2023/11/17 04:07:02;;;;;;;1.50;1.40;;;;;;;;;;4956913;28;20222;-81
2023/11/17 04:09:31;;;;;;;1.87;1.73;;;;;;;;;;4968462;28;20230;-82
2023/11/17 04:12:02;;;;;;;2.27;1.57;;;;;;;;;;4945304;28;20862;-81
2023/11/17 04:14:37;;;;;;;2.10;1.90;;;;;;;;;;4935787;28;20715;-83
2023/11/17 04:17:10;;;;;;;2.20;1.50;;;;;;;;;;4928031;28;20245;-83
2023/11/17 04:19:40;;;;;;;1.70;1.60;;;;;;;;;;4947157;28;20218;-83
2023/11/17 04:22:12;;;;;;;2.77;1.80;;;;;;;;;;4962581;28;20229;-82
2023/11/17 04:24:41;;;;;;;1.90;1.60;;;;;;;;;;4979209;28;20319;-81
2023/11/17 04:27:10;;;;;;;1.80;1.37;;;;;;;;;;4934037;28;20236;-82
2023/11/17 04:29:36;;;;;;;5.20;1.80;;;;;;;;;;4964860;28;20261;-82
2023/11/17 04:32:07;;;;;;;1.93;1.50;;;;;;;;;;4962343;28;20286;-82
2023/11/17 04:34:32;;;;;;;1.87;1.73;;;;;;;;;;4972052;28;20226;-82
2023/11/17 04:36:58;;;;;;;2.17;1.57;;;;;;;;;;4973890;28;20270;-81
2023/11/17 04:39:24;;;;;;;1.80;1.70;;;;;;;;;;4969355;28;20220;-82
2023/11/17 04:41:52;;;;;;;4.37;1.60;;;;;;;;;;4968140;28;20230;-84
2023/11/17 04:44:18;;;;;;;2.53;1.80;;;;;;;;;;4972511;28;20226;-84
2023/11/17 04:46:44;;;;;;;3.10;2.20;;;;;;;;;;4964702;28;20490;-82
2023/11/17 04:49:12;;;;;;;1.87;1.77;;;;;;;;;;4941420;28;20218;-84
2023/11/17 04:51:38;;;;;;;1.87;1.67;;;;;;;;;;4945801;28;20242;-82
2023/11/17 04:54:05;;;;;;;3.87;1.50;;;;;;;;;;4963488;28;20225;-83
2023/11/17 04:56:31;;;;;;;2.87;2.17;;;;;;;;;;4976896;28;20222;-83
2023/11/17 04:58:56;;;;;;;1.80;1.70;;;;;;;;;;4949065;28;20782;-82
2023/11/17 05:01:23;;;;;;;2.10;1.90;;;;;;;;;;4972734;28;20251;-83
2023/11/17 05:03:49;;;;;;;1.83;1.73;;;;;;;;;;4962259;28;20589;-84
2023/11/17 05:06:17;;;;;;;2.50;2.30;;;;;;;;;;4947213;28;20218;-84
2023/11/17 05:08:43;;;;;;;2.57;2.37;;;;;;;;;;4950462;28;20232;-83
2023/11/17 05:11:09;;;;;;;2.50;2.30;;;;;;;;;;4958502;28;20215;-82
2023/11/17 05:13:37;;;;;;;2.27;2.07;;;;;;;;;;4952146;28;20222;-84
2023/11/17 05:16:03;;;;;;;2.40;2.20;;;;;;;;;;4930247;28;20241;-84
2023/11/17 05:18:29;;;;;;;3.40;3.10;;;;;;;;;;4952089;28;20268;-83
2023/11/17 05:20:55;;;;;;;5.27;2.70;;;;;;;;;;4926494;28;20264;-82
2023/11/17 05:23:20;;;;;;;2.93;2.73;;;;;;;;;;4953886;28;20231;-83
2023/11/17 05:25:47;;;;;;;2.87;2.60;;;;;;;;;;4955219;28;20281;-83
2023/11/17 05:28:13;;;;;;;3.23;2.50;;;;;;;;;;4953470;28;20259;-83
2023/11/17 05:30:38;;;;;;;3.20;2.87;;;;;;;;;;4944552;28;20600;-82
2023/11/17 05:33:06;;;;;;;4.80;3.13;;;;;;;;;;4946289;28;20273;-83
2023/11/17 05:35:32;;;;;;;3.70;3.30;;;;;;;;;;4945775;28;20213;-84
2023/11/17 05:37:58;;;;;;;4.30;3.20;;;;;;;;;;4959992;28;20718;-83
2023/11/17 05:40:26;;;;;;;4.57;3.30;;;;;;;;;;4941603;28;20234;-83
2023/11/17 05:42:54;;;;;;;4.53;3.07;;;;;;;;;;4926402;29;20223;-83
2023/11/17 05:45:20;;;;;;;3.97;3.57;;;;;;;;;;4936787;29;20223;-83
2023/11/17 05:47:45;;;;;;;5.60;3.30;;;;;;;;;;4941288;29;20213;-84
2023/11/17 05:50:11;;;;;;;4.07;3.47;;;;;;;;;;4939922;28;20227;-82
2023/11/17 05:52:38;;;;;;;3.67;3.33;;;;;;;;;;4925832;29;20282;-82
2023/11/17 05:55:04;;;;;;;6.00;3.77;;;;;;;;;;4932750;29;20227;-82
2023/11/17 05:57:29;;;;;;;4.23;3.30;;;;;;;;;;4940616;29;20227;-83
2023/11/17 05:59:57;;;;;;;3.87;3.40;;;;;;;;;;4966644;28;20662;-83
2023/11/17 06:02:27;;;;;;;5.20;3.60;;;;;;;;;;4940859;29;20263;-84
2023/11/17 06:04:53;;;;;;;4.20;3.60;;;;;;;;;;4928123;29;20234;-83
2023/11/17 06:07:22;;;;;;;4.10;3.70;;;;;;;;;;4937334;29;20256;-84
2023/11/17 06:09:48;;;;;;;4.83;3.80;;;;;;;;;;4938933;28;20231;-83
2023/11/17 06:12:15;;;;;;;5.80;4.50;;;;;;;;;;4921446;29;20775;-84
2023/11/17 06:14:41;;;;;;;5.27;4.77;;;;;;;;;;4944294;29;20231;-82
2023/11/17 06:17:08;;;;;;;6.63;4.57;;;;;;;;;;4927299;28;20223;-84
2023/11/17 06:19:36;;;;;;;7.03;4.20;;;;;;;;;;4933430;29;20236;-84
2023/11/17 06:22:01;;;;;;;4.80;4.37;;;;;;;;;;4924975;29;20231;-82
2023/11/17 06:24:27;;;;;;;5.23;4.50;;;;;;;;;;4938565;29;20317;-83
2023/11/17 06:26:53;;;;;;;5.10;4.47;;;;;;;;;;4923309;29;20226;-82
2023/11/17 06:29:22;;;;;;;4.93;4.53;;;;;;;;;;4933301;28;20207;-83
2023/11/17 06:31:48;;;;;;;5.50;5.00;;;;;;;;;;4936783;29;20282;-82
2023/11/17 06:34:16;;;;;;;5.60;5.10;;;;;;;;;;4925015;28;20714;-83
2023/11/17 06:36:46;;;;;;;7.63;5.70;;;;;;;;;;4922288;28;20306;-83
2023/11/17 06:39:18;;;;;;;7.07;6.37;;;;;;;;;;4946543;29;20231;-82
2023/11/17 06:41:48;;;;;;;6.80;6.10;;;;;;;;;;4958028;28;20214;-83
2023/11/17 06:44:14;;;;;;;8.27;6.00;;;;;;;;;;4905472;28;20240;-84
2023/11/17 06:46:41;;;;;;;6.17;5.57;;;;;;;;;;4952128;29;20215;-83
2023/11/17 06:49:09;;;;;;;9.20;6.50;;;;;;;;;;4936507;28;20652;-83
2023/11/17 06:51:44;;;;;;;8.57;7.27;;;;;;;;;;4915355;29;20230;-84
2023/11/17 06:54:11;;;;;;;7.57;6.77;;;;;;;;;;4938287;28;20755;-84
2023/11/17 06:56:43;;;;;;;8.00;7.20;;;;;;;;;;4918295;29;20222;-84
2023/11/17 06:59:12;;;;;;;8.57;7.50;;;;;;;;;;4935271;28;20311;-81
2023/11/17 07:01:43;;;;;;;8.27;7.53;;;;;;;;;;4928787;29;20228;-79
2023/11/17 07:04:12;;;;;;;7.77;7.07;;;;;;;;;;4917410;28;20282;-77
2023/11/17 07:06:40;;;;;;;7.23;6.63;;;;;;;;;;4925880;29;20233;-78
2023/11/17 07:09:30;;;;;;;8.50;7.70;;;;;;;;;;4931733;28;20219;-81
2023/11/17 07:11:59;;;;;;;8.50;7.50;;;;;;;;;;4942106;28;20264;-79
2023/11/17 07:14:30;;;;;;;9.00;7.73;;;;;;;;;;4939550;28;20218;-80
2023/11/17 07:16:55;;;;;;;8.07;7.40;;;;;;;;;;4923879;29;20277;-80
2023/11/17 07:19:21;;;;;;;7.37;6.77;;;;;;;;;;4944087;28;20600;-80
2023/11/17 07:21:50;;;;;;;7.70;7.00;;;;;;;;;;4932689;29;20231;-79
2023/11/17 07:24:18;;;;;;;7.90;7.20;;;;;;;;;;4941844;28;20314;-79
2023/11/17 07:26:44;;;;;;;8.20;7.17;;;;;;;;;;4944187;29;20688;-80
2023/11/17 07:29:10;;;;;;;8.17;6.50;;;;;;;;;;4932101;28;20214;-81
2023/11/17 07:31:39;;;;;;;8.67;7.77;;;;;;;;;;4927817;29;20283;-81
2023/11/17 07:34:08;;;;;;;7.73;7.03;;;;;;;;;;4926426;28;20227;-80
2023/11/17 07:36:37;;;;;;;8.50;7.63;;;;;;;;;;4942025;28;20788;-80
2023/11/17 07:39:18;;;;;;;7.53;6.70;;;;;;;;;;4944510;28;20231;-79
2023/11/17 07:41:44;;;;;;;8.90;7.13;;;;;;;;;;4931609;29;20238;-80
2023/11/17 07:44:18;;;;;;;9.13;7.37;;;;;;;;;;4932824;29;20394;-80
2023/11/17 07:46:47;;;;;;;9.07;7.33;;;;;;;;;;4912542;29;20224;-80
2023/11/17 07:49:21;;;;;;;7.03;6.43;;;;;;;;;;4932648;29;20250;-81
2023/11/17 07:51:48;;;;;;;7.37;6.70;;;;;;;;;;4958410;28;20265;-81
2023/11/17 07:54:16;;;;;;;7.13;6.43;;;;;;;;;;4931035;28;20706;-80
2023/11/17 07:56:46;;;;;;;7.07;6.37;;;;;;;;;;4940328;29;20216;-80
2023/11/17 07:59:18;;;;;;;7.67;6.33;;;;;;;;;;4918495;29;20231;-81
2023/11/17 08:01:48;;;;;;;6.53;5.90;;;;;;;;;;4917062;29;20223;-80
2023/11/17 08:04:13;;;;;;;6.43;5.90;;;;;;;;;;4932299;29;20219;-78
2023/11/17 08:06:41;;;;;;;6.20;5.60;;;;;;;;;;4925531;29;20250;-80
2023/11/17 08:09:10;;;;;;;6.30;5.70;;;;;;;;;;4941016;28;20251;-79
2023/11/17 08:11:40;;;;;;;6.43;5.20;;;;;;;;;;4942515;28;20233;-81
2023/11/17 08:14:05;;;;;;;5.57;5.07;;;;;;;;;;4927881;28;20225;-81
2023/11/17 08:16:34;;;;;;;16.33;10.60;;;;;;;;;;4949068;29;20226;-80
2023/11/17 08:19:03;;;;;;;14.30;10.00;;;;;;;;;;4922859;29;20242;-80
2023/11/17 08:21:33;;;;;;;10.97;7.50;;;;;;;;;;4912962;29;20326;-81
2023/11/17 08:23:58;;;;;;;6.50;5.83;;;;;;;;;;4933222;29;20711;-79
2023/11/17 08:26:24;;;;;;;6.50;5.47;;;;;;;;;;4921396;28;20227;-82
2023/11/17 08:28:52;;;;;;;6.73;5.57;;;;;;;;;;4920310;29;20227;-80
2023/11/17 08:31:17;;;;;;;8.53;5.67;;;;;;;;;;4918169;28;21083;-80
2023/11/17 08:33:45;;;;;;;6.47;5.83;;;;;;;;;;4947015;28;20222;-81
2023/11/17 08:36:11;;;;;;;6.23;5.23;;;;;;;;;;4939584;28;20266;-79
2023/11/17 08:38:43;;;;;;;7.10;5.00;;;;;;;;;;4932473;29;20243;-80
2023/11/17 08:41:12;;;;;;;8.97;4.80;;;;;;;;;;4924440;28;20658;-80
2023/11/17 08:43:39;;;;;;;5.33;4.83;;;;;;;;;;4927985;28;20568;-81
2023/11/17 08:46:06;;;;;;;6.30;4.53;;;;;;;;;;4930957;28;20641;-81
2023/11/17 08:48:35;;;;;;;5.27;4.53;;;;;;;;;;4931588;28;20242;-80
2023/11/17 08:51:01;;;;;;;4.23;3.80;;;;;;;;;;4926548;28;20222;-79
2023/11/17 08:53:29;;;;;;;3.60;3.30;;;;;;;;;;4973553;28;20261;-78
2023/11/17 08:55:55;;;;;;;3.90;3.47;;;;;;;;;;4943173;28;20219;-81
2023/11/17 08:58:25;;;;;;;4.23;3.83;;;;;;;;;;4933201;28;20640;-81
2023/11/17 09:00:57;;;;;;;4.50;4.10;;;;;;;;;;4928469;29;21033;-81
2023/11/17 09:03:23;;;;;;;6.03;4.20;;;;;;;;;;4915580;28;20234;-81
2023/11/17 09:05:49;;;;;;;4.03;3.53;;;;;;;;;;4933180;29;20215;-79
2023/11/17 09:08:16;;;;;;;6.27;4.00;;;;;;;;;;4919345;28;20250;-78
2023/11/17 09:10:42;;;;;;;5.53;3.63;;;;;;;;;;4933888;29;20218;-81
2023/11/17 09:13:08;;;;;;;3.90;3.60;;;;;;;;;;4947710;28;20254;-82
2023/11/17 09:15:34;;;;;;;4.30;3.90;;;;;;;;;;4925301;28;20607;-81
2023/11/17 09:18:02;;;;;;;4.17;3.77;;;;;;;;;;4940107;28;20212;-80
2023/11/17 09:20:29;;;;;;;4.73;3.40;;;;;;;;;;4913923;28;20295;-81
2023/11/17 09:22:55;;;;;;;3.77;3.40;;;;;;;;;;4931293;29;20231;-80
2023/11/17 09:25:23;;;;;;;4.10;3.13;;;;;;;;;;4958095;28;20684;-80
2023/11/17 09:27:50;;;;;;;3.57;3.10;;;;;;;;;;4938272;28;20233;-79
2023/11/17 09:30:16;;;;;;;3.40;3.10;;;;;;;;;;4923814;28;20227;-79
2023/11/17 09:32:46;;;;;;;3.47;3.17;;;;;;;;;;4913163;29;20235;-80
2023/11/17 09:35:15;;;;;;;4.80;2.93;;;;;;;;;;4931403;28;20238;-80
2023/11/17 09:37:50;;;;;;;4.73;2.70;;;;;;;;;;4942509;28;20242;-80
2023/11/17 09:40:24;;;;;;;4.00;2.90;;;;;;;;;;4950399;28;20238;-78
2023/11/17 09:42:57;;;;;;;3.27;2.80;;;;;;;;;;4942144;28;20717;-78
2023/11/17 09:45:25;;;;;;;3.73;2.90;;;;;;;;;;4926256;28;20226;-79
2023/11/17 09:47:53;;;;;;;3.10;2.57;;;;;;;;;;4941730;29;20216;-81
2023/11/17 09:50:20;;;;;;;2.87;2.67;;;;;;;;;;4944073;28;20223;-80
2023/11/17 09:52:48;;;;;;;2.90;2.60;;;;;;;;;;4948720;28;20231;-79
2023/11/17 09:55:14;;;;;;;4.50;3.07;;;;;;;;;;4918962;28;20507;-82
2023/11/17 09:57:41;;;;;;;3.00;2.60;;;;;;;;;;4936428;28;20223;-81
2023/11/17 10:00:17;;;;;;;4.30;2.40;;;;;;;;;;4927235;28;20262;-79
2023/11/17 10:02:47;;;;;;;2.20;2.00;;;;;;;;;;4933972;29;20231;-79
2023/11/17 10:05:13;;;;;;;3.17;2.43;;;;;;;;;;4916101;28;20633;-80
2023/11/17 10:07:39;;;;;;;5.07;2.43;;;;;;;;;;4938409;28;20825;-78
2023/11/17 10:10:07;;;;;;;2.63;2.33;;;;;;;;;;4900213;28;20779;-79
2023/11/17 10:12:39;;;;;;;3.10;2.40;;;;;;;;;;4929313;28;20231;-78
2023/11/17 10:15:08;;;;;;;2.97;2.47;;;;;;;;;;4922217;28;20219;-81
2023/11/17 10:17:33;;;;;;;3.13;2.83;;;;;;;;;;4934411;28;20227;-79
2023/11/17 10:19:59;;;;;;;3.10;2.80;;;;;;;;;;4924802;29;20654;-79
2023/11/17 10:22:28;;;;;;;4.97;2.33;;;;;;;;;;4915052;28;20417;-79
2023/11/17 10:24:53;;;;;;;6.73;3.47;;;;;;;;;;4942461;28;20221;-78
2023/11/17 10:27:20;;;;;;;6.17;3.43;;;;;;;;;;4912579;28;20915;-79
2023/11/17 10:29:48;;;;;;;4.13;3.57;;;;;;;;;;4931483;29;20294;-78
2023/11/17 10:32:18;;;;;;;6.10;4.50;;;;;;;;;;4913931;28;20239;-79
2023/11/17 10:35:11;;;;;;;4.63;3.00;;;;;;;;;;4928813;29;20218;-79
2023/11/17 10:37:37;;;;;;;6.07;3.77;;;;;;;;;;4961479;28;20581;-79
2023/11/17 10:40:03;;;;;;;7.87;4.33;;;;;;;;;;4968102;28;20700;-77
2023/11/17 10:42:32;;;;;;;5.90;3.50;;;;;;;;;;4947532;28;20233;-79
2023/11/17 10:45:00;;;;;;;2.23;2.00;;;;;;;;;;4922807;29;20219;-80
2023/11/17 10:47:26;;;;;;;2.00;1.50;;;;;;;;;;4948684;28;20338;-80
2023/11/17 10:50:15;;;;;;;2.60;1.70;;;;;;;;;;4939570;29;20231;-80
2023/11/17 10:52:45;;;;;;;2.90;1.40;;;;;;;;;;4937300;28;20300;-79
2023/11/17 10:55:11;;;;;;;3.70;1.60;;;;;;;;;;4948429;28;20231;-78
2023/11/17 10:57:38;;;;;;;2.20;1.57;;;;;;;;;;4950534;28;20214;-79
2023/11/17 11:00:21;;;;;;;1.43;1.30;;;;;;;;;;4963790;28;20241;-77
2023/11/17 11:02:47;;;;;;;2.63;1.40;;;;;;;;;;4965625;28;20230;-78
2023/11/17 11:05:12;;;;;;;2.10;1.40;;;;;;;;;;4963119;28;20333;-81
2023/11/17 11:07:44;;;;;;;1.73;1.63;;;;;;;;;;4937921;28;20596;-78
2023/11/17 11:10:14;;;;;;;2.33;1.57;;;;;;;;;;4956801;28;20214;-78
2023/11/17 11:12:45;;;;;;;2.87;1.43;;;;;;;;;;4980109;28;20241;-79
2023/11/17 11:15:17;;;;;;;3.57;2.00;;;;;;;;;;4933575;28;20219;-80
2023/11/17 11:17:52;;;;;;;2.27;1.40;;;;;;;;;;4926339;28;20246;-79
2023/11/17 11:20:23;;;;;;;2.27;1.93;;;;;;;;;;4945360;28;20302;-79
2023/11/17 11:22:51;;;;;;;1.93;1.80;;;;;;;;;;4924081;29;20298;-81
2023/11/17 11:25:19;;;;;;;1.77;1.67;;;;;;;;;;4935492;28;20686;-79
2023/11/17 11:27:46;;;;;;;4.73;1.77;;;;;;;;;;4944444;28;20227;-80
2023/11/17 11:30:13;;;;;;;3.27;1.60;;;;;;;;;;4928125;28;20219;-80
2023/11/17 11:32:39;;;;;;;1.60;1.47;;;;;;;;;;4931027;28;20337;-78
2023/11/17 11:35:04;;;;;;;3.20;1.47;;;;;;;;;;4943531;28;20697;-77
2023/11/17 11:37:33;;;;;;;1.30;1.20;;;;;;;;;;4945366;28;20223;-78
2023/11/17 11:40:02;;;;;;;3.63;3.20;;;;;;;;;;4957291;28;20286;-78
2023/11/17 11:42:30;;;;;;;2.13;1.93;;;;;;;;;;4942731;29;20254;-77
2023/11/17 11:44:58;;;;;;;3.30;3.00;;;;;;;;;;4948211;29;20225;-79
2023/11/17 11:47:24;;;;;;;1.53;1.10;;;;;;;;;;4947638;28;20231;-78
2023/11/17 11:49:52;;;;;;;2.73;2.53;;;;;;;;;;4931680;29;20233;-79
2023/11/17 11:52:28;;;;;;;1.70;1.60;;;;;;;;;;4927107;28;20257;-80
2023/11/17 11:54:57;;;;;;;1.17;1.00;;;;;;;;;;4898706;29;20222;-81
2023/11/17 11:57:30;;;;;;;1.80;1.20;;;;;;;;;;4930779;28;20621;-80
2023/11/17 12:00:06;;;;;;;1.77;1.50;;;;;;;;;;4930066;28;20253;-79
2023/11/17 12:02:51;;;;;;;1.10;1.00;;;;;;;;;;4961385;28;20288;-80
2023/11/17 12:05:23;;;;;;;2.63;1.40;;;;;;;;;;4936662;28;20321;-80
2023/11/17 12:07:48;;;;;;;2.70;1.30;;;;;;;;;;4948850;28;20228;-79
2023/11/17 12:10:15;;;;;;;1.40;1.30;;;;;;;;;;4965513;28;20214;-79
2023/11/17 12:12:41;;;;;;;1.27;1.17;;;;;;;;;;4975727;28;20230;-80
2023/11/17 12:15:11;;;;;;;1.70;1.33;;;;;;;;;;4949109;28;20233;-79
2023/11/17 12:17:45;;;;;;;6.30;1.60;;;;;;;;;;4936895;28;20230;-79
2023/11/17 12:20:24;;;;;;;1.53;1.43;;;;;;;;;;4959475;28;20230;-79
2023/11/17 12:23:03;;;;;;;3.63;1.80;;;;;;;;;;4963060;28;20226;-80
2023/11/17 12:25:29;;;;;;;1.60;1.50;;;;;;;;;;4954203;28;20236;-78
2023/11/17 12:27:56;;;;;;;1.83;1.50;;;;;;;;;;4946755;28;20317;-79
2023/11/17 12:30:27;;;;;;;1.63;1.40;;;;;;;;;;4961586;28;20254;-79
2023/11/17 12:32:54;;;;;;;1.37;1.27;;;;;;;;;;4969236;23;20240;-75
2023/11/17 12:35:22;;;;;;;1.80;1.70;;;;;;;;;;4999483;28;20300;-74
2023/11/17 12:37:51;;;;;;;1.40;1.30;;;;;;;;;;4989381;28;20284;-75
2023/11/17 12:40:17;;;;;;;3.53;1.90;;;;;;;;;;4990841;28;20229;-75
2023/11/17 12:42:43;;;;;;;1.47;1.37;;;;;;;;;;4949549;28;20679;-75
2023/11/17 12:45:12;;;;;;;2.57;1.30;;;;;;;;;;4986618;28;20210;-75
2023/11/17 12:47:42;;;;;;;3.20;2.03;;;;;;;;;;4971528;28;20315;-74
2023/11/17 12:50:10;;;;;;;2.13;1.23;;;;;;;;;;5002766;28;20244;-74
2023/11/17 12:52:38;;;;;;;1.33;1.20;;;;;;;;;;4953485;28;20234;-75
2023/11/17 12:55:08;;;;;;;1.13;1.10;;;;;;;;;;4985804;28;20882;-75
2023/11/17 12:57:37;;;;;;;2.40;1.40;;;;;;;;;;4976755;28;20714;-75
2023/11/17 13:00:18;;;;;;;1.30;1.20;;;;;;;;;;4952674;28;20782;-75
2023/11/17 13:02:43;;;;;;;1.20;1.10;;;;;;;;;;4951116;28;20241;-76
2023/11/17 13:05:11;;;;;;;2.27;1.20;;;;;;;;;;4964876;28;21071;-76
2023/11/17 13:07:37;;;;;;;1.30;1.20;;;;;;;;;;4962663;28;20654;-76
2023/11/17 13:10:06;;;;;;;1.30;1.20;;;;;;;;;;4934999;28;20232;-76
2023/11/17 13:12:34;;;;;;;2.53;1.30;;;;;;;;;;4997061;28;20313;-76
2023/11/17 13:15:09;;;;;;;2.30;1.30;;;;;;;;;;4949255;28;20328;-76
2023/11/17 13:17:37;;;;;;;4.93;4.03;;;;;;;;;;4975186;28;20217;-76
2023/11/17 13:20:20;;;;;;;1.90;1.80;;;;;;;;;;4974084;28;20310;-77
2023/11/17 13:22:47;;;;;;;3.00;1.90;;;;;;;;;;4975959;28;20312;-77
2023/11/17 13:25:14;;;;;;;14.47;8.53;;;;;;;;;;5007611;28;20609;-75
2023/11/17 13:27:45;;;;;;;5.70;5.10;;;;;;;;;;5007236;28;20217;-77
2023/11/17 13:30:13;;;;;;;4.73;3.00;;;;;;;;;;4934572;28;20221;-75
2023/11/17 13:32:59;;;;;;;2.87;2.67;;;;;;;;;;4990122;28;20288;-75
2023/11/17 13:35:28;;;;;;;1.40;1.30;;;;;;;;;;4990353;28;20231;-76
2023/11/17 13:38:03;;;;;;;1.23;1.10;;;;;;;;;;4984575;28;20309;-76
2023/11/17 13:40:36;;;;;;;1.67;1.57;;;;;;;;;;4989141;28;20248;-76
2023/11/17 13:43:10;;;;;;;3.20;1.63;;;;;;;;;;4959862;28;20213;-76
2023/11/17 13:45:38;;;;;;;2.43;2.00;;;;;;;;;;4989437;28;20635;-75
2023/11/17 13:48:07;;;;;;;1.30;1.20;;;;;;;;;;4989625;28;20300;-77
2023/11/17 13:50:35;;;;;;;3.57;1.60;;;;;;;;;;4958689;28;20236;-77
2023/11/17 13:53:01;;;;;;;1.13;1.03;;;;;;;;;;4976595;28;20285;-76
2023/11/17 13:55:30;;;;;;;1.37;1.27;;;;;;;;;;5005702;28;20221;-77
2023/11/17 13:57:56;;;;;;;1.17;1.07;;;;;;;;;;4991076;28;20308;-77
2023/11/17 14:00:24;;;;;;;1.20;1.10;;;;;;;;;;4972669;28;20237;-77
2023/11/17 14:02:53;;;;;;;1.10;1.10;;;;;;;;;;4972839;28;20224;-76
2023/11/17 14:05:22;;;;;;;1.60;1.30;;;;;;;;;;4974380;28;20313;-76
2023/11/17 14:07:48;;;;;;;2.20;1.37;;;;;;;;;;4973438;28;20215;-76
2023/11/17 14:10:17;;;;;;;2.07;1.53;;;;;;;;;;4987249;28;20729;-76
2023/11/17 14:12:46;;;;;;;1.30;1.20;;;;;;;;;;4989618;28;20224;-76
2023/11/17 14:15:16;;;;;;;1.63;1.40;;;;;;;;;;4991041;28;20649;-77
2023/11/17 14:17:43;;;;;;;1.00;1.00;;;;;;;;;;4991178;28;20217;-77
2023/11/17 14:20:09;;;;;;;1.03;1.03;;;;;;;;;;4972035;28;20233;-76
2023/11/17 14:22:35;;;;;;;2.03;1.20;;;;;;;;;;4962921;28;20218;-77
2023/11/17 14:25:02;;;;;;;1.40;1.30;;;;;;;;;;4967989;28;20296;-76
2023/11/17 14:27:30;;;;;;;1.93;1.27;;;;;;;;;;4971132;28;20378;-77
2023/11/17 14:29:58;;;;;;;1.50;1.03;;;;;;;;;;4987540;28;20224;-75
2023/11/17 14:32:24;;;;;;;1.23;1.13;;;;;;;;;;4970384;28;20299;-76
2023/11/17 14:34:52;;;;;;;11.80;10.50;;;;;;;;;;4987093;28;20214;-77
2023/11/17 14:37:25;;;;;;;7.53;6.63;;;;;;;;;;4987310;28;20221;-77
2023/11/17 14:39:53;;;;;;;3.83;3.43;;;;;;;;;;4988061;28;20237;-77
2023/11/17 14:42:20;;;;;;;1.80;1.60;;;;;;;;;;4971993;28;20611;-77
2023/11/17 14:44:49;;;;;;;1.47;1.30;;;;;;;;;;4971559;28;20244;-76
2023/11/17 14:47:24;;;;;;;1.57;1.47;;;;;;;;;;4988773;28;20230;-77
2023/11/17 14:49:50;;;;;;;2.80;1.80;;;;;;;;;;4972562;28;20221;-76
2023/11/17 14:52:19;;;;;;;1.47;1.20;;;;;;;;;;4971989;28;20232;-76
2023/11/17 14:54:49;;;;;;;1.50;1.40;;;;;;;;;;4990446;28;20682;-76
2023/11/17 14:57:15;;;;;;;1.27;1.17;;;;;;;;;;5005785;28;20587;-77